createdAt,value
2022-08-03T00:02:34.231Z,16.35
2022-08-03T00:05:21.458Z,16.19
2022-08-03T00:08:08.452Z,16.04
2022-08-03T00:10:55.863Z,15.95
2022-08-03T00:13:43.255Z,16.01
2022-08-03T00:16:30.204Z,16.25
2022-08-03T00:19:17.152Z,16.15
2022-08-03T00:22:04.205Z,16.12
2022-08-03T00:24:51.098Z,15.94
2022-08-03T00:27:38.058Z,15.97
2022-08-03T00:30:30.761Z,16.12
2022-08-03T00:33:18.323Z,16.35
2022-08-03T00:36:07.508Z,16.27
2022-08-03T00:38:54.972Z,16.12
2022-08-03T00:41:41.920Z,16.03
2022-08-03T00:44:28.906Z,15.98
2022-08-03T00:47:15.863Z,15.88
2022-08-03T00:50:03.905Z,16.05
2022-08-03T00:52:53.415Z,16.17
2022-08-03T00:55:44.097Z,16.12
2022-08-03T00:58:31.074Z,16.06
2022-08-03T01:01:18.125Z,16.11
2022-08-03T01:04:05.155Z,16.13
2022-08-03T01:07:03.438Z,16.18
2022-08-03T01:10:34.835Z,16.12
2022-08-03T01:14:01.484Z,16.08
2022-08-03T01:17:21.520Z,15.95
2022-08-03T01:20:11.723Z,15.76
2022-08-03T01:23:23.376Z,15.87
2022-08-03T01:26:43.022Z,16.21
2022-08-03T01:29:51.942Z,16.68
2022-08-03T01:33:02.734Z,16.43
2022-08-03T01:36:02.453Z,16.53
2022-08-03T01:38:58.000Z,16.21
2022-08-03T01:41:49.629Z,16.08
2022-08-03T01:44:44.207Z,15.81
2022-08-03T01:47:31.810Z,15.57
2022-08-03T01:50:25.366Z,15.17
2022-08-03T01:53:15.657Z,14.97
2022-08-03T01:56:03.758Z,14.90
2022-08-03T01:58:52.971Z,15.13
2022-08-03T02:02:15.559Z,15.25
2022-08-03T02:04:50.471Z,15.04
2022-08-03T02:07:40.046Z,15.08
2022-08-03T02:10:34.519Z,15.22
2022-08-03T02:13:25.720Z,15.31
2022-08-03T02:16:14.116Z,15.41
2022-08-03T02:19:04.508Z,15.24
2022-08-03T02:21:56.829Z,15.14
2022-08-03T02:24:49.294Z,15.14
2022-08-03T02:27:43.919Z,15.16
2022-08-03T02:30:38.734Z,15.32
2022-08-03T02:33:27.413Z,15.23
2022-08-03T02:36:16.014Z,14.90
2022-08-03T02:39:05.346Z,14.60
2022-08-03T02:41:55.433Z,14.69
2022-08-03T02:44:47.812Z,14.72
2022-08-03T02:47:54.403Z,14.61
2022-08-03T02:50:44.662Z,14.63
2022-08-03T02:53:33.491Z,15.19
2022-08-03T02:56:21.706Z,16.04
2022-08-03T02:59:10.498Z,16.53
2022-08-03T03:02:00.295Z,16.24
2022-08-03T03:05:55.306Z,15.47
2022-08-03T03:07:57.614Z,15.89
2022-08-03T03:10:46.636Z,16.32
2022-08-03T03:13:34.170Z,16.21
2022-08-03T03:16:22.408Z,15.71
2022-08-03T03:19:13.207Z,15.82
2022-08-03T03:22:06.980Z,15.64
2022-08-03T03:24:55.838Z,15.58
2022-08-03T03:27:43.068Z,15.65
2022-08-03T03:30:38.204Z,15.42
2022-08-03T03:33:27.204Z,15.95
2022-08-03T03:36:15.635Z,16.23
2022-08-03T03:39:15.795Z,16.64
2022-08-03T03:42:04.700Z,16.70
2022-08-03T03:44:51.795Z,16.40
2022-08-03T03:47:39.025Z,16.29
2022-08-03T03:50:27.510Z,16.53
2022-08-03T03:53:14.985Z,16.18
2022-08-03T03:56:03.458Z,16.22
2022-08-03T03:58:50.620Z,16.54
2022-08-03T04:01:39.198Z,16.27
2022-08-03T04:04:44.590Z,15.93
2022-08-03T04:08:01.871Z,15.98
2022-08-03T04:11:03.123Z,16.25
2022-08-03T04:14:02.084Z,15.94
2022-08-03T04:16:56.706Z,16.29
2022-08-03T04:19:52.617Z,16.21
2022-08-03T04:22:40.358Z,16.36
2022-08-03T04:25:31.285Z,16.23
2022-08-03T04:28:30.593Z,15.83
2022-08-03T04:31:22.987Z,16.00
2022-08-03T04:34:10.254Z,15.92
2022-08-03T04:37:00.596Z,16.12
2022-08-03T04:39:49.918Z,16.53
2022-08-03T04:42:38.594Z,16.44
2022-08-03T04:45:27.319Z,16.48
2022-08-03T04:48:15.681Z,16.83
2022-08-03T04:51:04.551Z,17.11
2022-08-03T04:53:51.599Z,17.21
2022-08-03T04:56:41.684Z,17.01
2022-08-03T04:59:28.760Z,17.04
2022-08-03T05:02:16.263Z,17.32
2022-08-03T05:05:03.829Z,17.72
2022-08-03T05:07:50.982Z,17.61
2022-08-03T05:10:38.083Z,17.73
2022-08-03T05:13:25.325Z,17.64
2022-08-03T05:16:13.913Z,18.00
2022-08-03T05:19:00.912Z,18.48
2022-08-03T05:21:52.860Z,18.89
2022-08-03T05:24:39.996Z,19.48
2022-08-03T05:27:27.028Z,20.48
2022-08-03T05:30:31.202Z,21.21
2022-08-03T05:33:21.222Z,21.49
2022-08-03T05:36:08.215Z,21.58
2022-08-03T05:38:57.522Z,21.66
2022-08-03T05:41:46.562Z,23.67
2022-08-03T05:44:33.492Z,23.10
2022-08-03T05:47:20.466Z,22.66
2022-08-03T05:50:08.024Z,22.59
2022-08-03T05:52:58.244Z,21.92
2022-08-03T05:55:45.294Z,21.93
2022-08-03T05:58:32.300Z,22.22
2022-08-03T06:01:22.106Z,22.33
2022-08-03T06:04:09.086Z,21.65
2022-08-03T06:06:56.149Z,21.79
2022-08-03T06:10:35.998Z,21.71
2022-08-03T06:12:51.042Z,23.17
2022-08-03T06:15:38.038Z,22.77
2022-08-03T06:18:25.036Z,21.60
2022-08-03T06:21:14.891Z,22.27
2022-08-03T06:24:02.998Z,23.07
2022-08-03T06:26:53.252Z,24.00
2022-08-03T06:29:40.180Z,25.88
2022-08-03T06:32:27.519Z,26.67
2022-08-03T06:35:14.581Z,25.28
2022-08-03T06:38:01.651Z,26.21
2022-08-03T06:40:48.829Z,26.23
2022-08-03T06:44:03.532Z,23.61
2022-08-03T06:46:44.873Z,24.12
2022-08-03T06:49:31.937Z,23.78
2022-08-03T06:52:38.183Z,26.56
2022-08-03T06:55:25.643Z,26.21
2022-08-03T06:58:12.643Z,24.53
2022-08-03T07:00:59.833Z,26.56
2022-08-03T07:03:52.315Z,27.40
2022-08-03T07:06:39.703Z,26.90
2022-08-03T07:09:26.949Z,27.07
2022-08-03T07:12:13.942Z,27.62
2022-08-03T07:15:03.283Z,26.89
2022-08-03T07:17:50.860Z,27.34
2022-08-03T07:20:37.935Z,26.83
2022-08-03T07:23:25.775Z,27.15
2022-08-03T07:26:13.281Z,25.62
2022-08-03T07:29:01.557Z,26.34
2022-08-03T07:31:48.627Z,27.67
2022-08-03T07:34:35.578Z,27.97
2022-08-03T07:37:22.615Z,29.73
2022-08-03T07:40:09.765Z,29.43
2022-08-03T07:42:58.329Z,30.25
2022-08-03T07:45:45.257Z,30.42
2022-08-03T07:48:32.415Z,30.51
2022-08-03T07:51:19.524Z,29.69
2022-08-03T07:54:06.634Z,30.53
2022-08-03T07:56:54.355Z,30.12
2022-08-03T07:59:56.600Z,29.35
2022-08-03T08:02:48.294Z,28.94
2022-08-03T08:05:35.218Z,29.84
2022-08-03T08:08:22.208Z,30.10
2022-08-03T08:11:09.214Z,29.78
2022-08-03T08:13:56.215Z,30.39
2022-08-03T08:16:43.184Z,29.86
2022-08-03T08:19:30.246Z,30.34
2022-08-03T08:22:28.750Z,30.00
2022-08-03T08:25:17.360Z,31.73
2022-08-03T08:28:29.063Z,30.82
2022-08-03T08:31:13.809Z,30.23
2022-08-03T08:34:05.600Z,30.28
2022-08-03T08:36:52.610Z,30.89
2022-08-03T08:39:39.720Z,30.93
2022-08-03T08:42:26.976Z,31.77
2022-08-03T08:45:15.666Z,33.30
2022-08-03T08:48:07.936Z,33.28
2022-08-03T08:50:57.238Z,31.63
2022-08-03T08:53:47.888Z,31.16
2022-08-03T08:56:36.957Z,31.80
2022-08-03T08:59:24.434Z,31.34
2022-08-03T09:02:12.011Z,32.54
2022-08-03T09:05:04.049Z,31.42
2022-08-03T09:07:53.922Z,30.48
2022-08-03T09:10:40.884Z,31.22
2022-08-03T09:13:29.262Z,31.23
2022-08-03T09:16:19.652Z,30.47
2022-08-03T09:19:14.264Z,32.97
2022-08-03T09:22:15.737Z,31.76
2022-08-03T09:25:27.385Z,31.55
2022-08-03T09:28:53.936Z,30.94
2022-08-03T09:31:39.674Z,31.78
2022-08-03T09:34:31.052Z,32.45
2022-08-03T09:37:20.304Z,32.97
2022-08-03T09:40:46.542Z,33.57
2022-08-03T09:43:46.824Z,33.60
2022-08-03T09:46:51.261Z,33.71
2022-08-03T09:49:41.629Z,34.61
2022-08-03T09:52:49.737Z,33.37
2022-08-03T09:56:33.293Z,34.73
2022-08-03T09:59:07.603Z,33.45
2022-08-03T10:01:56.091Z,34.16
2022-08-03T10:04:52.717Z,36.11
2022-08-03T10:07:45.951Z,34.90
2022-08-03T10:10:43.013Z,35.35
2022-08-03T10:13:30.377Z,35.80
2022-08-03T10:16:22.183Z,35.16
2022-08-03T10:19:11.344Z,33.16
2022-08-03T10:22:04.977Z,36.55
2022-08-03T10:25:04.028Z,34.19
2022-08-03T10:27:53.275Z,35.29
2022-08-03T10:30:44.247Z,35.73
2022-08-03T10:33:51.104Z,35.24
2022-08-03T10:36:41.470Z,34.95
2022-08-03T10:39:30.781Z,33.53
2022-08-03T10:42:17.932Z,33.98
2022-08-03T10:45:09.893Z,33.13
2022-08-03T10:47:57.919Z,33.45
2022-08-03T10:50:46.331Z,34.12
2022-08-03T10:53:44.125Z,33.22
2022-08-03T10:57:11.646Z,34.43
2022-08-03T11:00:03.221Z,34.36
2022-08-03T11:03:16.654Z,33.92
2022-08-03T11:06:26.771Z,36.06
2022-08-03T11:09:24.713Z,34.09
2022-08-03T11:12:32.652Z,35.06
2022-08-03T11:15:33.350Z,35.36
2022-08-03T11:18:20.981Z,37.09
2022-08-03T11:21:14.764Z,36.68
2022-08-03T11:24:04.631Z,37.11
2022-08-03T11:27:15.727Z,35.22
2022-08-03T11:30:07.203Z,36.17
2022-08-03T11:32:58.017Z,37.36
2022-08-03T11:36:02.368Z,35.67
2022-08-03T11:39:21.859Z,34.72
2022-08-03T11:42:27.583Z,36.41
2022-08-03T11:45:15.237Z,35.37
2022-08-03T11:48:15.699Z,34.27
2022-08-03T11:51:04.869Z,36.34
2022-08-03T11:54:04.056Z,37.47
2022-08-03T11:56:51.207Z,35.44
2022-08-03T11:59:38.930Z,36.81
2022-08-03T12:02:26.254Z,35.51
2022-08-03T12:05:13.278Z,34.57
2022-08-03T12:08:03.664Z,36.83
2022-08-03T12:10:54.185Z,38.56
2022-08-03T12:14:26.893Z,36.62
2022-08-03T12:16:52.571Z,37.30
2022-08-03T12:19:43.565Z,37.64
2022-08-03T12:22:39.607Z,37.70
2022-08-03T12:25:39.213Z,38.75
2022-08-03T12:28:30.371Z,38.53
2022-08-03T12:31:25.184Z,36.35
2022-08-03T12:34:13.669Z,37.57
2022-08-03T12:37:05.385Z,38.11
2022-08-03T12:40:13.244Z,35.43
2022-08-03T12:43:11.308Z,34.78
2022-08-03T12:46:12.916Z,37.25
2022-08-03T12:49:03.977Z,36.91
2022-08-03T12:51:51.102Z,37.25
2022-08-03T12:54:38.490Z,36.46
2022-08-03T12:57:26.166Z,35.45
2022-08-03T13:00:28.651Z,36.41
2022-08-03T13:03:42.468Z,35.19
2022-08-03T13:06:25.615Z,36.77
2022-08-03T13:09:12.601Z,36.45
2022-08-03T13:12:08.298Z,37.22
2022-08-03T13:14:57.439Z,36.62
2022-08-03T13:17:44.638Z,37.36
2022-08-03T13:20:31.941Z,36.59
2022-08-03T13:23:22.347Z,35.80
2022-08-03T13:26:10.994Z,34.50
2022-08-03T13:28:58.015Z,33.33
2022-08-03T13:31:50.987Z,35.42
2022-08-03T13:34:38.907Z,36.90
2022-08-03T13:37:26.849Z,38.02
2022-08-03T13:40:14.777Z,37.20
2022-08-03T13:43:01.854Z,35.76
2022-08-03T13:45:52.301Z,36.66
2022-08-03T13:48:41.890Z,34.78
2022-08-03T13:51:28.980Z,36.68
2022-08-03T13:54:16.001Z,34.86
2022-08-03T13:58:03.732Z,35.66
2022-08-03T14:00:10.770Z,36.15
2022-08-03T14:03:13.717Z,35.19
2022-08-03T14:06:00.962Z,35.24
2022-08-03T14:08:48.783Z,36.49
2022-08-03T14:12:07.099Z,34.59
2022-08-03T14:14:42.864Z,34.56
2022-08-03T14:17:42.347Z,34.70
2022-08-03T14:20:49.040Z,34.34
2022-08-03T14:23:39.256Z,36.19
2022-08-03T14:26:26.381Z,36.54
2022-08-03T14:29:13.333Z,35.69
2022-08-03T14:32:12.095Z,35.94
2022-08-03T14:35:00.005Z,36.39
2022-08-03T14:37:47.560Z,34.16
2022-08-03T14:40:34.608Z,34.88
2022-08-03T14:43:21.912Z,35.76
2022-08-03T14:46:08.902Z,36.86
2022-08-03T14:50:29.165Z,33.95
2022-08-03T14:52:02.850Z,32.95
2022-08-03T14:54:49.904Z,35.11
2022-08-03T14:57:37.007Z,33.88
2022-08-03T15:00:23.958Z,34.80
2022-08-03T15:03:11.024Z,36.40
2022-08-03T15:06:03.789Z,36.85
2022-08-03T15:09:13.735Z,34.16
2022-08-03T15:11:58.094Z,34.15
2022-08-03T15:14:45.044Z,33.52
2022-08-03T15:17:32.045Z,33.33
2022-08-03T15:20:28.718Z,33.49
2022-08-03T15:23:23.657Z,33.23
2022-08-03T15:26:33.891Z,33.32
2022-08-03T15:30:07.794Z,33.33
2022-08-03T15:32:25.137Z,33.67
2022-08-03T15:35:13.433Z,33.02
2022-08-03T15:38:00.626Z,32.45
2022-08-03T15:40:47.887Z,32.86
2022-08-03T15:43:34.850Z,32.97
2022-08-03T15:46:29.816Z,33.08
2022-08-03T15:49:17.144Z,32.98
2022-08-03T15:52:04.530Z,33.07
2022-08-03T15:54:51.626Z,32.38
2022-08-03T15:59:09.294Z,32.77
2022-08-03T16:00:45.789Z,32.78
2022-08-03T16:03:36.335Z,32.53
2022-08-03T16:06:29.579Z,33.41
2022-08-03T16:09:24.000Z,33.70
2022-08-03T16:12:29.679Z,33.00
2022-08-03T16:15:16.681Z,32.89
2022-08-03T16:18:03.800Z,32.84
2022-08-03T16:20:50.827Z,31.98
2022-08-03T16:23:39.727Z,33.08
2022-08-03T16:26:30.664Z,32.28
2022-08-03T16:29:23.217Z,32.75
2022-08-03T16:32:11.208Z,33.26
2022-08-03T16:34:58.562Z,32.91
2022-08-03T16:37:56.164Z,33.18
2022-08-03T16:40:43.702Z,32.89
2022-08-03T16:43:30.721Z,32.06
2022-08-03T16:46:17.715Z,31.87
2022-08-03T16:49:04.742Z,32.39
2022-08-03T16:51:51.728Z,32.52
2022-08-03T16:54:41.181Z,32.47
2022-08-03T16:57:58.262Z,32.40
2022-08-03T17:00:41.690Z,31.94
2022-08-03T17:03:35.836Z,31.62
2022-08-03T17:06:45.017Z,31.66
2022-08-03T17:09:38.477Z,32.46
2022-08-03T17:12:27.087Z,32.32
2022-08-03T17:15:14.465Z,31.48
2022-08-03T17:18:05.603Z,31.46
2022-08-03T17:20:56.160Z,31.68
2022-08-03T17:24:26.518Z,31.15
2022-08-03T17:28:42.346Z,31.59
2022-08-03T17:30:44.517Z,31.34
2022-08-03T17:33:35.567Z,31.65
2022-08-03T17:36:32.954Z,31.66
2022-08-03T17:39:55.663Z,30.92
2022-08-03T17:42:39.051Z,31.21
2022-08-03T17:45:26.425Z,30.75
2022-08-03T17:48:33.819Z,30.47
2022-08-03T17:51:33.630Z,30.30
2022-08-03T17:54:27.111Z,30.47
2022-08-03T17:57:27.120Z,30.41
2022-08-03T18:00:37.231Z,30.36
2022-08-03T18:03:59.078Z,30.23
2022-08-03T18:06:55.641Z,30.32
2022-08-03T18:10:05.144Z,30.65
2022-08-03T18:13:04.771Z,30.20
2022-08-03T18:16:02.483Z,29.92
2022-08-03T18:18:54.790Z,30.13
2022-08-03T18:22:02.859Z,29.89
2022-08-03T18:24:50.428Z,29.77
2022-08-03T18:27:42.638Z,29.65
2022-08-03T18:30:32.843Z,29.26
2022-08-03T18:34:17.830Z,29.26
2022-08-03T18:36:49.068Z,29.39
2022-08-03T18:39:49.292Z,29.40
2022-08-03T18:42:56.085Z,28.37
2022-08-03T18:49:08.365Z,28.16
2022-08-03T18:52:27.681Z,28.14
2022-08-03T18:55:32.890Z,28.01
2022-08-03T18:58:28.486Z,26.87
2022-08-03T19:01:58.199Z,26.72
2022-08-03T19:04:41.247Z,26.50
2022-08-03T19:10:44.523Z,26.70
2022-08-03T19:13:51.327Z,26.42
2022-08-03T19:16:41.663Z,26.00
2022-08-03T19:19:44.187Z,25.72
2022-08-03T19:22:36.845Z,25.41
2022-08-03T19:25:34.565Z,24.42
2022-08-03T19:28:29.614Z,24.09
2022-08-03T19:31:17.347Z,24.19
2022-08-03T19:34:08.226Z,24.24
2022-08-03T19:36:58.426Z,24.07
2022-08-03T19:39:45.794Z,24.33
2022-08-03T19:42:46.446Z,23.87
2022-08-03T19:46:05.200Z,23.93
2022-08-03T19:48:54.711Z,23.41
2022-08-03T19:52:00.883Z,23.44
2022-08-03T19:54:53.891Z,23.86
2022-08-03T19:57:44.154Z,23.79
2022-08-03T20:00:38.118Z,23.78
2022-08-03T20:03:43.430Z,23.68
2022-08-03T20:06:31.642Z,23.43
2022-08-03T20:09:20.791Z,23.34
2022-08-03T20:12:09.446Z,22.61
2022-08-03T20:14:59.940Z,22.58
2022-08-03T20:17:54.398Z,22.69
2022-08-03T20:20:48.107Z,21.92
2022-08-03T20:23:38.847Z,21.90
2022-08-03T20:26:51.710Z,22.29
2022-08-03T20:30:06.445Z,22.37
2022-08-03T20:32:54.584Z,22.95
2022-08-03T20:35:41.954Z,22.67
2022-08-03T20:38:32.804Z,22.82
2022-08-03T20:41:30.946Z,22.95
2022-08-03T20:44:18.841Z,23.03
2022-08-03T20:47:14.035Z,22.88
2022-08-03T20:50:11.491Z,23.12
2022-08-03T20:52:59.286Z,21.76
2022-08-03T20:56:02.195Z,20.37
2022-08-03T20:58:50.970Z,20.46
2022-08-03T21:01:38.292Z,21.07
2022-08-03T21:04:25.332Z,22.24
2022-08-03T21:07:18.649Z,22.71
2022-08-03T21:10:13.096Z,22.76
2022-08-03T21:13:00.461Z,27.95
2022-08-03T21:13:01.364Z,26.57
2022-08-03T21:13:17.025Z,23.01
2022-08-03T21:16:13.945Z,23.10
2022-08-03T21:19:04.119Z,22.73
2022-08-03T21:21:52.083Z,22.08
2022-08-03T21:24:40.813Z,22.09
2022-08-03T21:27:30.646Z,21.83
2022-08-03T21:30:18.660Z,22.22
2022-08-03T21:33:07.599Z,22.44
2022-08-03T21:35:54.904Z,22.33
2022-08-03T21:38:43.928Z,21.57
2022-08-03T21:41:36.225Z,21.38
2022-08-03T21:44:25.168Z,21.45
2022-08-03T21:47:17.961Z,21.00
2022-08-03T21:50:09.854Z,20.96
2022-08-03T21:52:59.153Z,20.62
2022-08-03T21:55:58.272Z,21.03
2022-08-03T21:58:53.548Z,21.36
2022-08-03T22:01:42.737Z,21.63
2022-08-03T22:04:50.816Z,21.80
2022-08-03T22:07:40.041Z,21.75
2022-08-03T22:10:28.946Z,21.79
2022-08-03T22:13:43.645Z,21.67
2022-08-03T22:16:26.674Z,21.71
2022-08-03T22:19:13.621Z,21.70
2022-08-03T22:22:06.123Z,22.00
2022-08-03T22:25:04.002Z,21.81
2022-08-03T22:27:53.378Z,21.14
2022-08-03T22:30:41.870Z,20.42
2022-08-03T22:33:29.383Z,20.57
2022-08-03T22:36:19.983Z,20.41
2022-08-03T22:39:07.261Z,20.70
2022-08-03T22:41:56.411Z,20.75
2022-08-03T22:44:45.068Z,20.65
2022-08-03T22:47:36.382Z,21.01
2022-08-03T22:50:32.608Z,20.86
2022-08-03T22:53:22.250Z,20.38
2022-08-03T22:56:09.672Z,20.45
2022-08-03T22:58:56.629Z,20.35
2022-08-03T23:01:44.425Z,20.21
2022-08-03T23:04:34.042Z,20.08
2022-08-03T23:07:41.390Z,20.21
2022-08-03T23:10:28.821Z,20.34
2022-08-03T23:13:17.519Z,20.22
2022-08-03T23:16:06.497Z,20.75
2022-08-03T23:18:53.993Z,20.98
2022-08-03T23:21:51.290Z,20.92
2022-08-03T23:24:48.362Z,21.02
2022-08-03T23:27:40.261Z,21.35
2022-08-03T23:30:31.582Z,21.52
2022-08-03T23:33:18.945Z,21.40
2022-08-03T23:36:28.660Z,21.50
2022-08-03T23:39:16.323Z,21.24
2022-08-03T23:42:03.865Z,21.10
2022-08-03T23:44:55.274Z,21.02
2022-08-03T23:47:46.967Z,21.09
2022-08-03T23:50:54.286Z,20.99
2022-08-03T23:53:51.567Z,20.88
2022-08-03T23:56:58.226Z,20.32
